Time;durP1;ratioP1;P1;durP2;ratioP2;P2;SDS_P1;SDS_P2;PMS_P1;PMS_P2;Temp;Humidity;BMP_temperature;BMP_pressure;BME280_temperature;BME280_humidity;BME280_pressure;Samples;Min_cycle;Max_cycle;Signal;HPM_P1;HPM_P2
2024/01/27 00:01:08;;;;;;;;;;;5.20;99.90;;;;;;5023985;28;19962;-62
2024/01/27 00:03:34;;;;;;;;;;;5.20;99.90;;;;;;5024102;28;20409;-62
2024/01/27 00:05:59;;;;;;;;;;;5.20;99.90;;;;;;5024054;28;19914;-62
2024/01/27 00:08:24;;;;;;;;;;;5.20;99.90;;;;;;5023843;28;19935;-62
2024/01/27 00:10:50;;;;;;;;;;;5.20;99.90;;;;;;5024180;28;19913;-64
2024/01/27 00:13:15;;;;;;;;;;;5.20;99.90;;;;;;5024323;28;19943;-62
2024/01/27 00:15:41;;;;;;;;;;;5.20;99.90;;;;;;5014085;28;19947;-62
2024/01/27 00:18:06;;;;;;;;;;;5.10;99.90;;;;;;5024456;28;19917;-62
2024/01/27 00:20:33;;;;;;;;;;;5.10;99.90;;;;;;5023243;28;19963;-62
2024/01/27 00:22:58;;;;;;;;;;;5.10;99.90;;;;;;5023832;28;20019;-62
2024/01/27 00:25:24;;;;;;;;;;;5.10;99.90;;;;;;5052025;28;19913;-62
2024/01/27 00:27:49;;;;;;;;;;;5.10;99.90;;;;;;5021779;28;20315;-61
2024/01/27 00:30:15;;;;;;;;;;;5.10;99.90;;;;;;5023351;28;20332;-62
2024/01/27 00:32:40;;;;;;;;;;;5.10;99.90;;;;;;5005576;28;19913;-62
2024/01/27 00:35:07;;;;;;;;;;;5.10;99.90;;;;;;5023577;28;19917;-61
2024/01/27 00:37:32;;;;;;;;;;;5.10;99.90;;;;;;5023348;28;19913;-62
2024/01/27 00:39:58;;;;;;;;;;;5.00;99.90;;;;;;5023462;28;19940;-61
2024/01/27 00:42:24;;;;;;;;;;;5.00;99.90;;;;;;5051491;28;19913;-62
2024/01/27 00:44:50;;;;;;;;;;;5.00;99.90;;;;;;5015575;28;19925;-62
2024/01/27 00:47:15;;;;;;;;;;;5.00;99.90;;;;;;5005460;28;19939;-62
2024/01/27 00:49:41;;;;;;;;;;;5.00;99.90;;;;;;5023340;28;19921;-62
2024/01/27 00:52:06;;;;;;;;;;;5.00;99.90;;;;;;5023038;28;19933;-62
2024/01/27 00:54:32;;;;;;;;;;;5.00;99.90;;;;;;5023028;28;19924;-62
2024/01/27 00:56:57;;;;;;;;;;;5.00;99.90;;;;;;5023264;28;19953;-62
2024/01/27 00:59:23;;;;;;;;;;;5.00;99.90;;;;;;5021413;28;19946;-62
2024/01/27 01:01:49;;;;;;;;;;;5.00;99.90;;;;;;5022359;28;19909;-62
2024/01/27 01:04:14;;;;;;;;;;;4.90;99.90;;;;;;5023265;28;20012;-62
2024/01/27 01:06:40;;;;;;;;;;;4.90;99.90;;;;;;5022764;28;20591;-62
2024/01/27 01:09:06;;;;;;;;;;;4.90;99.90;;;;;;5023214;28;19953;-61
2024/01/27 01:11:31;;;;;;;;;;;4.90;99.90;;;;;;5022614;28;19919;-62
2024/01/27 01:13:57;;;;;;;;;;;4.90;99.90;;;;;;5023082;28;20418;-62
2024/01/27 01:16:22;;;;;;;;;;;4.90;99.90;;;;;;5023037;28;20274;-61
2024/01/27 01:18:48;;;;;;;;;;;4.90;99.90;;;;;;5022748;28;19932;-62
2024/01/27 01:21:13;;;;;;;;;;;4.90;99.90;;;;;;5022723;28;19913;-62
2024/01/27 01:23:39;;;;;;;;;;;4.90;99.90;;;;;;5022764;28;20432;-62
2024/01/27 01:26:04;;;;;;;;;;;4.80;99.90;;;;;;5005243;28;20597;-62
2024/01/27 01:28:32;;;;;;;;;;;4.90;99.90;;;;;;5020934;28;19924;-62
2024/01/27 01:30:57;;;;;;;;;;;4.90;99.90;;;;;;5004482;28;20381;-62
2024/01/27 01:33:23;;;;;;;;;;;4.90;99.90;;;;;;5022889;28;19913;-62
2024/01/27 01:35:48;;;;;;;;;;;4.80;99.90;;;;;;5022292;28;19970;-62
2024/01/27 01:38:14;;;;;;;;;;;4.80;99.90;;;;;;5023132;28;19938;-61
2024/01/27 01:40:39;;;;;;;;;;;4.80;99.90;;;;;;5021527;28;20004;-62
2024/01/27 01:43:13;;;;;;;;;;;4.80;99.90;;;;;;5022302;28;19913;-61
2024/01/27 01:45:39;;;;;;;;;;;4.80;99.90;;;;;;5021922;28;19944;-62
2024/01/27 01:48:05;;;;;;;;;;;4.80;99.90;;;;;;5016671;28;19953;-61
2024/01/27 01:50:31;;;;;;;;;;;4.80;99.90;;;;;;5014985;28;19917;-62
2024/01/27 01:52:57;;;;;;;;;;;4.80;99.90;;;;;;5022406;28;19913;-62
2024/01/27 01:55:22;;;;;;;;;;;4.80;99.90;;;;;;5022573;28;19913;-62
2024/01/27 01:57:48;;;;;;;;;;;4.70;99.90;;;;;;5022437;28;19924;-62
2024/01/27 02:00:14;;;;;;;;;;;4.70;99.90;;;;;;5022271;28;19909;-61
2024/01/27 02:02:40;;;;;;;;;;;4.70;99.90;;;;;;5022107;28;20699;-62
2024/01/27 02:05:05;;;;;;;;;;;4.70;99.90;;;;;;5022224;28;20646;-62
2024/01/27 02:07:31;;;;;;;;;;;4.70;99.90;;;;;;5022032;28;19909;-62
2024/01/27 02:09:56;;;;;;;;;;;4.70;99.90;;;;;;5022407;28;20012;-62
2024/01/27 02:12:22;;;;;;;;;;;4.70;99.90;;;;;;5022025;28;19916;-62
2024/01/27 02:14:47;;;;;;;;;;;4.70;99.90;;;;;;5021901;28;19925;-61
2024/01/27 02:17:13;;;;;;;;;;;4.70;99.90;;;;;;5021923;28;20346;-62
2024/01/27 02:19:38;;;;;;;;;;;4.60;99.90;;;;;;5022086;28;20350;-62
2024/01/27 02:22:04;;;;;;;;;;;4.70;99.90;;;;;;5021712;28;19970;-62
2024/01/27 02:24:29;;;;;;;;;;;4.60;99.90;;;;;;5021995;28;19966;-61
2024/01/27 02:26:55;;;;;;;;;;;4.60;99.90;;;;;;5020167;28;19960;-62
2024/01/27 02:29:21;;;;;;;;;;;4.60;99.90;;;;;;5022097;28;19928;-62
2024/01/27 02:31:46;;;;;;;;;;;4.60;99.90;;;;;;5020913;28;20331;-62
2024/01/27 02:34:12;;;;;;;;;;;4.60;99.90;;;;;;5048413;28;20339;-62
2024/01/27 02:36:37;;;;;;;;;;;4.60;99.90;;;;;;5005475;28;19921;-62
2024/01/27 02:39:03;;;;;;;;;;;4.60;99.90;;;;;;5022162;28;19916;-62
2024/01/27 02:41:28;;;;;;;;;;;4.60;99.90;;;;;;5011998;28;20319;-62
2024/01/27 02:43:54;;;;;;;;;;;4.60;99.90;;;;;;5045789;28;19917;-62
2024/01/27 02:46:19;;;;;;;;;;;4.50;99.90;;;;;;5021446;28;19913;-62
2024/01/27 02:48:45;;;;;;;;;;;4.50;99.90;;;;;;5021660;28;19978;-61
2024/01/27 02:51:11;;;;;;;;;;;4.50;99.90;;;;;;5022794;28;19913;-62
2024/01/27 02:53:36;;;;;;;;;;;4.50;99.90;;;;;;5025299;28;19917;-62
2024/01/27 02:56:02;;;;;;;;;;;4.50;99.90;;;;;;5025505;28;19917;-62
2024/01/27 02:58:27;;;;;;;;;;;4.50;99.90;;;;;;5024839;28;20377;-61
2024/01/27 03:00:53;;;;;;;;;;;4.50;99.90;;;;;;5024676;28;19982;-62
2024/01/27 03:03:18;;;;;;;;;;;4.50;99.90;;;;;;5024663;28;19955;-62
2024/01/27 03:05:44;;;;;;;;;;;4.50;99.90;;;;;;5024767;28;19966;-62
2024/01/27 03:08:09;;;;;;;;;;;4.40;99.90;;;;;;5025394;28;19913;-62
2024/01/27 03:10:35;;;;;;;;;;;4.40;99.90;;;;;;5024890;28;19913;-62
2024/01/27 03:13:00;;;;;;;;;;;4.40;99.90;;;;;;5024898;28;19953;-62
2024/01/27 03:15:26;;;;;;;;;;;4.40;99.90;;;;;;5024423;28;20601;-62
2024/01/27 03:17:52;;;;;;;;;;;4.40;99.90;;;;;;5024979;28;19953;-62
2024/01/27 03:20:17;;;;;;;;;;;4.40;99.90;;;;;;5045933;28;19960;-62
2024/01/27 03:22:43;;;;;;;;;;;4.40;99.90;;;;;;5024223;28;19909;-62
2024/01/27 03:25:10;;;;;;;;;;;4.40;99.90;;;;;;5024780;28;19909;-62
2024/01/27 03:27:36;;;;;;;;;;;4.40;99.90;;;;;;5022820;28;19913;-61
2024/01/27 03:30:02;;;;;;;;;;;4.40;99.90;;;;;;5024488;28;20445;-62
2024/01/27 03:32:27;;;;;;;;;;;4.40;99.90;;;;;;5024093;28;19921;-62
2024/01/27 03:34:53;;;;;;;;;;;4.40;99.90;;;;;;5024443;28;19920;-61
2024/01/27 03:37:21;;;;;;;;;;;4.30;99.90;;;;;;5006668;28;19913;-62
2024/01/27 03:39:46;;;;;;;;;;;4.30;99.90;;;;;;5024369;28;19928;-62
2024/01/27 03:42:12;;;;;;;;;;;4.30;99.90;;;;;;5024465;28;19913;-61
2024/01/27 03:44:37;;;;;;;;;;;4.40;99.90;;;;;;5024532;28;19970;-62
2024/01/27 03:47:03;;;;;;;;;;;4.40;99.90;;;;;;5024341;28;20317;-62
2024/01/27 03:49:28;;;;;;;;;;;4.30;99.90;;;;;;5024067;28;19920;-62
2024/01/27 03:51:54;;;;;;;;;;;4.30;99.90;;;;;;5023811;28;19915;-62
2024/01/27 03:54:19;;;;;;;;;;;4.30;99.90;;;;;;5024433;28;19917;-61
2024/01/27 03:56:45;;;;;;;;;;;4.30;99.90;;;;;;5024251;28;20539;-62
2024/01/27 03:59:11;;;;;;;;;;;4.30;99.90;;;;;;5009069;28;19962;-62
2024/01/27 04:01:37;;;;;;;;;;;4.30;99.90;;;;;;5023548;28;19973;-62
2024/01/27 04:04:02;;;;;;;;;;;4.30;99.90;;;;;;5023562;28;19998;-61
2024/01/27 04:06:28;;;;;;;;;;;4.20;99.90;;;;;;5019873;28;19982;-62
2024/01/27 04:08:53;;;;;;;;;;;4.20;99.90;;;;;;5024632;28;19944;-62
2024/01/27 04:11:20;;;;;;;;;;;4.20;99.90;;;;;;5023799;28;19913;-62
2024/01/27 04:13:45;;;;;;;;;;;4.20;99.90;;;;;;5006007;28;19924;-62
2024/01/27 04:16:11;;;;;;;;;;;4.20;99.90;;;;;;5024016;28;19913;-62
2024/01/27 04:18:38;;;;;;;;;;;4.20;99.90;;;;;;5023999;28;19920;-62
2024/01/27 04:21:04;;;;;;;;;;;4.20;99.90;;;;;;5023637;28;20650;-61
2024/01/27 04:23:29;;;;;;;;;;;4.20;99.90;;;;;;5023460;28;19921;-62
2024/01/27 04:25:55;;;;;;;;;;;4.20;99.90;;;;;;5024217;28;20016;-61
2024/01/27 04:28:20;;;;;;;;;;;4.10;99.90;;;;;;5024140;28;19913;-61
2024/01/27 04:30:46;;;;;;;;;;;4.10;99.90;;;;;;5023123;28;20024;-62
2024/01/27 04:33:12;;;;;;;;;;;4.10;99.90;;;;;;5023735;28;19913;-61
2024/01/27 04:35:37;;;;;;;;;;;4.10;99.90;;;;;;5023654;28;19913;-61
2024/01/27 04:38:03;;;;;;;;;;;4.10;99.90;;;;;;5023835;28;19913;-62
2024/01/27 04:40:29;;;;;;;;;;;4.10;99.90;;;;;;5023440;28;19913;-62
2024/01/27 04:42:54;;;;;;;;;;;4.10;99.90;;;;;;5005797;28;19917;-62
2024/01/27 04:45:20;;;;;;;;;;;4.10;99.90;;;;;;5023540;28;19920;-62
2024/01/27 04:47:45;;;;;;;;;;;4.10;99.90;;;;;;5053854;28;20231;-62
2024/01/27 04:50:11;;;;;;;;;;;4.10;99.90;;;;;;5022655;28;19909;-62
2024/01/27 04:52:36;;;;;;;;;;;4.10;99.90;;;;;;5023019;28;19920;-62
2024/01/27 04:55:03;;;;;;;;;;;4.10;99.90;;;;;;5022773;28;19924;-62
2024/01/27 04:57:28;;;;;;;;;;;4.10;99.90;;;;;;5022847;28;19913;-62
2024/01/27 04:59:54;;;;;;;;;;;4.10;99.90;;;;;;5026648;28;20308;-62
2024/01/27 05:02:19;;;;;;;;;;;4.10;99.90;;;;;;5023204;28;19913;-62
2024/01/27 05:04:45;;;;;;;;;;;4.00;99.90;;;;;;5023276;28;19913;-61
2024/01/27 05:07:10;;;;;;;;;;;4.00;99.90;;;;;;5023271;28;20320;-62
2024/01/27 05:09:36;;;;;;;;;;;4.00;99.90;;;;;;5023005;28;19914;-62
2024/01/27 05:12:02;;;;;;;;;;;4.00;99.90;;;;;;5022938;28;19913;-61
2024/01/27 05:14:28;;;;;;;;;;;4.00;99.90;;;;;;5021782;28;19921;-62
2024/01/27 05:16:53;;;;;;;;;;;4.00;99.90;;;;;;5014410;28;20522;-62
2024/01/27 05:19:19;;;;;;;;;;;4.00;99.90;;;;;;5023081;28;20417;-62
2024/01/27 05:21:44;;;;;;;;;;;4.00;99.90;;;;;;5022027;28;19913;-61
2024/01/27 05:24:10;;;;;;;;;;;4.00;99.90;;;;;;5022849;28;19956;-62
2024/01/27 05:26:35;;;;;;;;;;;4.00;99.90;;;;;;5022412;28;19974;-62
2024/01/27 05:29:01;;;;;;;;;;;4.00;99.90;;;;;;5023295;28;19917;-62
2024/01/27 05:31:26;;;;;;;;;;;4.00;99.90;;;;;;5030548;28;20109;-62
2024/01/27 05:33:52;;;;;;;;;;;3.90;99.90;;;;;;5031150;28;19943;-61
2024/01/27 05:36:18;;;;;;;;;;;3.90;99.90;;;;;;5022899;28;19913;-62
2024/01/27 05:38:43;;;;;;;;;;;3.90;99.90;;;;;;5022694;28;19924;-61
2024/01/27 05:41:09;;;;;;;;;;;3.90;99.90;;;;;;5022747;28;19920;-61
2024/01/27 05:43:34;;;;;;;;;;;3.90;99.90;;;;;;5022614;28;19914;-62
2024/01/27 05:46:00;;;;;;;;;;;3.90;99.90;;;;;;5022534;28;19913;-62
2024/01/27 05:48:25;;;;;;;;;;;3.90;99.90;;;;;;5023036;28;19917;-62
2024/01/27 05:50:57;;;;;;;;;;;3.90;99.90;;;;;;5037127;27;19909;-61
2024/01/27 05:53:23;;;;;;;;;;;3.90;99.90;;;;;;5022708;28;19947;-62
2024/01/27 05:55:48;;;;;;;;;;;3.90;99.90;;;;;;5030544;28;19917;-62
2024/01/27 05:58:14;;;;;;;;;;;3.90;99.90;;;;;;5022424;28;20334;-62
2024/01/27 06:00:39;;;;;;;;;;;3.80;99.90;;;;;;5005711;28;19925;-62
2024/01/27 06:03:05;;;;;;;;;;;3.80;99.90;;;;;;5026699;28;19913;-62
2024/01/27 06:05:30;;;;;;;;;;;3.90;99.90;;;;;;5022134;28;19920;-62
2024/01/27 06:07:56;;;;;;;;;;;3.80;99.90;;;;;;5004970;28;20016;-62
2024/01/27 06:10:22;;;;;;;;;;;3.80;99.90;;;;;;5022505;28;19924;-61
2024/01/27 06:12:47;;;;;;;;;;;3.80;99.90;;;;;;5022187;28;20471;-62
2024/01/27 06:15:15;;;;;;;;;;;3.80;99.90;;;;;;5022355;28;20012;-62
2024/01/27 06:17:40;;;;;;;;;;;3.80;99.90;;;;;;5004348;28;20112;-62
2024/01/27 06:20:06;;;;;;;;;;;3.80;99.90;;;;;;5022272;28;20005;-62
2024/01/27 06:22:32;;;;;;;;;;;3.80;99.90;;;;;;5022017;28;20042;-62
2024/01/27 06:24:58;;;;;;;;;;;3.80;99.90;;;;;;5022532;28;19913;-61
2024/01/27 06:27:24;;;;;;;;;;;3.80;99.90;;;;;;5025541;28;20240;-62
2024/01/27 06:29:49;;;;;;;;;;;3.80;99.90;;;;;;5007324;28;20016;-62
2024/01/27 06:32:15;;;;;;;;;;;3.70;99.90;;;;;;5025420;28;19921;-61
2024/01/27 06:34:41;;;;;;;;;;;3.80;99.90;;;;;;5025507;28;19928;-62
2024/01/27 06:37:06;;;;;;;;;;;3.80;99.90;;;;;;5025500;28;19917;-62
2024/01/27 06:39:32;;;;;;;;;;;3.70;99.90;;;;;;5025428;28;20050;-62
2024/01/27 06:41:57;;;;;;;;;;;3.70;99.90;;;;;;5025323;28;20010;-62
2024/01/27 06:44:23;;;;;;;;;;;3.70;99.90;;;;;;5025454;28;20290;-62
2024/01/27 06:46:50;;;;;;;;;;;3.70;99.90;;;;;;5024862;28;20389;-62
2024/01/27 06:49:16;;;;;;;;;;;3.70;99.90;;;;;;5025490;28;20645;-61
2024/01/27 06:51:41;;;;;;;;;;;3.70;99.90;;;;;;5024763;28;19930;-61
2024/01/27 06:54:07;;;;;;;;;;;3.70;99.90;;;;;;5025499;28;19921;-61
2024/01/27 06:56:32;;;;;;;;;;;3.70;99.90;;;;;;5024943;28;19913;-61
2024/01/27 06:58:58;;;;;;;;;;;3.70;99.90;;;;;;5040623;28;19948;-62
2024/01/27 07:01:24;;;;;;;;;;;3.70;99.90;;;;;;5024746;28;20023;-62
2024/01/27 07:03:49;;;;;;;;;;;3.70;99.90;;;;;;5025113;28;19967;-62
2024/01/27 07:06:15;;;;;;;;;;;3.70;99.90;;;;;;5025093;28;20311;-62
2024/01/27 07:08:40;;;;;;;;;;;3.60;99.90;;;;;;5025151;28;19913;-62
2024/01/27 07:11:06;;;;;;;;;;;3.60;99.90;;;;;;5006972;28;19913;-61
2024/01/27 07:13:32;;;;;;;;;;;3.60;99.90;;;;;;5024622;28;19937;-62
2024/01/27 07:15:57;;;;;;;;;;;3.60;99.90;;;;;;5024856;28;19917;-62
2024/01/27 07:18:24;;;;;;;;;;;3.60;99.90;;;;;;5025296;28;19954;-61
2024/01/27 07:20:49;;;;;;;;;;;3.60;99.90;;;;;;5032386;28;19909;-62
2024/01/27 07:23:15;;;;;;;;;;;3.60;99.90;;;;;;5025075;28;20533;-62
2024/01/27 07:25:40;;;;;;;;;;;3.60;99.90;;;;;;5025099;28;19938;-62
2024/01/27 07:28:06;;;;;;;;;;;3.60;99.90;;;;;;5025176;28;19913;-62
2024/01/27 07:30:31;;;;;;;;;;;3.60;99.90;;;;;;5024244;28;20620;-62
2024/01/27 07:32:57;;;;;;;;;;;3.60;99.90;;;;;;5024786;28;19917;-62
2024/01/27 07:35:22;;;;;;;;;;;3.50;99.90;;;;;;5024832;28;19975;-62
2024/01/27 07:37:48;;;;;;;;;;;3.60;99.90;;;;;;5023118;28;20418;-61
2024/01/27 07:40:13;;;;;;;;;;;3.60;99.90;;;;;;5025035;28;19916;-61
2024/01/27 07:42:40;;;;;;;;;;;3.60;99.90;;;;;;5014438;28;19913;-62
2024/01/27 07:45:05;;;;;;;;;;;3.50;99.90;;;;;;5024097;28;19925;-61
2024/01/27 07:47:31;;;;;;;;;;;3.60;99.90;;;;;;5024267;28;20496;-62
2024/01/27 07:49:56;;;;;;;;;;;3.50;99.90;;;;;;5024059;28;19917;-62
2024/01/27 07:52:22;;;;;;;;;;;3.50;99.90;;;;;;5024016;28;19924;-62
2024/01/27 07:54:48;;;;;;;;;;;3.50;99.90;;;;;;5024254;28;19941;-61
2024/01/27 07:57:13;;;;;;;;;;;3.60;99.90;;;;;;5024652;28;20099;-62
2024/01/27 07:59:39;;;;;;;;;;;3.50;99.90;;;;;;5024550;28;20334;-61
2024/01/27 08:02:05;;;;;;;;;;;3.50;99.90;;;;;;5024056;28;19913;-62
2024/01/27 08:04:30;;;;;;;;;;;3.50;99.90;;;;;;5024680;28;19964;-62
2024/01/27 08:06:56;;;;;;;;;;;3.50;99.90;;;;;;5016092;28;19909;-62
2024/01/27 08:09:21;;;;;;;;;;;3.60;99.90;;;;;;5024590;28;19920;-62
2024/01/27 08:11:51;;;;;;;;;;;3.50;99.90;;;;;;5026475;28;19967;-62
2024/01/27 08:14:16;;;;;;;;;;;3.60;99.90;;;;;;5029982;28;20012;-62
2024/01/27 08:16:43;;;;;;;;;;;3.60;99.90;;;;;;5023428;28;20015;-61
2024/01/27 08:19:08;;;;;;;;;;;3.60;99.90;;;;;;5023621;28;19970;-61
2024/01/27 08:21:34;;;;;;;;;;;3.50;99.90;;;;;;5022794;28;19909;-61
2024/01/27 08:23:59;;;;;;;;;;;3.50;99.90;;;;;;5023373;28;20504;-62
2024/01/27 08:26:25;;;;;;;;;;;3.50;99.90;;;;;;5021866;28;20663;-61
2024/01/27 08:28:51;;;;;;;;;;;3.50;99.90;;;;;;5026185;28;20642;-61
2024/01/27 08:31:16;;;;;;;;;;;3.50;99.90;;;;;;5028759;28;20387;-62
2024/01/27 08:33:42;;;;;;;;;;;3.50;99.90;;;;;;5023385;28;19917;-62
2024/01/27 08:36:07;;;;;;;;;;;3.60;99.90;;;;;;5023718;28;19917;-62
2024/01/27 08:38:33;;;;;;;;;;;3.50;99.90;;;;;;5023513;28;20251;-62
2024/01/27 08:40:58;;;;;;;;;;;3.50;99.90;;;;;;5023795;28;19966;-62
2024/01/27 08:43:24;;;;;;;;;;;3.50;99.90;;;;;;5023912;28;20476;-62
2024/01/27 08:45:49;;;;;;;;;;;3.60;99.90;;;;;;5014169;28;19909;-62
2024/01/27 08:48:16;;;;;;;;;;;3.60;99.90;;;;;;5023922;28;19955;-61
2024/01/27 08:50:41;;;;;;;;;;;3.60;99.90;;;;;;5015280;28;19918;-61
2024/01/27 08:53:07;;;;;;;;;;;3.60;99.90;;;;;;5027318;28;19965;-62
2024/01/27 08:55:32;;;;;;;;;;;3.60;99.90;;;;;;5023377;28;19922;-62
2024/01/27 08:57:58;;;;;;;;;;;3.60;99.90;;;;;;5018417;28;19919;-62
2024/01/27 09:00:23;;;;;;;;;;;3.60;99.90;;;;;;5021153;28;19978;-62
2024/01/27 09:02:49;;;;;;;;;;;3.60;99.90;;;;;;5021158;28;19928;-62
2024/01/27 09:05:14;;;;;;;;;;;3.60;99.90;;;;;;5022693;28;20375;-62
2024/01/27 09:07:40;;;;;;;;;;;3.60;99.90;;;;;;5023172;28;19921;-62
2024/01/27 09:10:06;;;;;;;;;;;3.60;99.90;;;;;;5024042;28;19913;-61
2024/01/27 09:12:32;;;;;;;;;;;3.70;99.90;;;;;;5023677;28;19912;-61
2024/01/27 09:14:58;;;;;;;;;;;3.60;99.90;;;;;;5024027;28;19943;-61
2024/01/27 09:17:23;;;;;;;;;;;3.60;99.90;;;;;;5023952;28;19964;-62
2024/01/27 09:19:49;;;;;;;;;;;3.60;99.90;;;;;;5023646;28;20008;-62
2024/01/27 09:22:15;;;;;;;;;;;3.70;99.90;;;;;;5022776;28;19924;-62
2024/01/27 09:24:40;;;;;;;;;;;3.70;99.90;;;;;;5023542;28;20381;-62
2024/01/27 09:27:06;;;;;;;;;;;3.70;99.90;;;;;;5022199;28;19913;-61
2024/01/27 09:29:31;;;;;;;;;;;3.70;99.90;;;;;;5012411;28;19929;-61
2024/01/27 09:31:57;;;;;;;;;;;3.70;99.90;;;;;;5021914;28;20020;-61
2024/01/27 09:34:22;;;;;;;;;;;3.70;99.90;;;;;;5023499;28;20011;-62
2024/01/27 09:36:48;;;;;;;;;;;3.70;99.90;;;;;;5008000;28;20419;-61
2024/01/27 09:39:13;;;;;;;;;;;3.70;99.90;;;;;;5023552;28;19970;-62
2024/01/27 09:41:40;;;;;;;;;;;3.80;99.90;;;;;;5023204;28;20558;-61
2024/01/27 09:44:06;;;;;;;;;;;3.80;99.90;;;;;;5023523;28;20372;-61
2024/01/27 09:46:32;;;;;;;;;;;3.80;99.90;;;;;;5023439;28;19978;-62
2024/01/27 09:48:57;;;;;;;;;;;3.80;99.90;;;;;;5022274;28;20316;-62
2024/01/27 09:51:25;;;;;;;;;;;3.80;99.90;;;;;;5022839;28;20500;-61
2024/01/27 09:53:51;;;;;;;;;;;3.80;99.90;;;;;;5022966;28;20532;-61
2024/01/27 09:56:20;;;;;;;;;;;3.80;99.90;;;;;;5023297;28;20008;-62
2024/01/27 09:58:46;;;;;;;;;;;3.80;99.90;;;;;;5024785;28;19913;-61
2024/01/27 10:01:12;;;;;;;;;;;3.90;99.90;;;;;;5026874;28;19921;-62
2024/01/27 10:03:39;;;;;;;;;;;3.90;99.90;;;;;;5029723;28;20366;-61
2024/01/27 10:06:08;;;;;;;;;;;3.90;99.90;;;;;;5029538;28;19917;-61
2024/01/27 10:08:33;;;;;;;;;;;3.90;99.90;;;;;;5015042;28;20366;-62
2024/01/27 10:10:59;;;;;;;;;;;3.90;99.90;;;;;;5029562;28;19917;-62
2024/01/27 10:13:27;;;;;;;;;;;3.90;99.90;;;;;;5029685;28;19916;-61
2024/01/27 10:16:02;;;;;;;;;;;3.90;99.90;;;;;;5028986;28;19917;-61
2024/01/27 10:18:28;;;;;;;;;;;4.00;99.90;;;;;;5029705;28;19921;-61
2024/01/27 10:20:54;;;;;;;;;;;4.00;99.90;;;;;;5028365;28;19909;-61
2024/01/27 10:23:19;;;;;;;;;;;4.00;99.90;;;;;;5032158;28;20027;-61
2024/01/27 10:25:45;;;;;;;;;;;4.00;99.90;;;;;;5029399;28;19992;-61
2024/01/27 10:28:11;;;;;;;;;;;4.00;99.90;;;;;;5027257;28;20376;-62
2024/01/27 10:30:37;;;;;;;;;;;4.10;99.90;;;;;;5016752;28;20329;-62
2024/01/27 10:33:02;;;;;;;;;;;4.10;99.90;;;;;;5029843;28;19962;-62
2024/01/27 10:35:28;;;;;;;;;;;4.10;99.90;;;;;;5029641;28;20300;-61
2024/01/27 10:37:54;;;;;;;;;;;4.10;99.90;;;;;;5029657;28;20258;-62
2024/01/27 10:40:20;;;;;;;;;;;4.10;99.90;;;;;;5029549;28;19916;-61
2024/01/27 10:42:46;;;;;;;;;;;4.20;99.90;;;;;;5028963;28;19913;-61
2024/01/27 10:45:12;;;;;;;;;;;4.10;99.90;;;;;;5029477;28;19912;-61
2024/01/27 10:47:38;;;;;;;;;;;4.10;99.90;;;;;;5029445;28;19919;-62
2024/01/27 10:50:08;;;;;;;;;;;4.10;99.90;;;;;;5029438;28;19913;-62
2024/01/27 10:52:34;;;;;;;;;;;4.20;99.90;;;;;;5029237;28;19913;-62
2024/01/27 10:55:00;;;;;;;;;;;4.10;99.90;;;;;;5027070;28;19913;-61
2024/01/27 10:57:27;;;;;;;;;;;4.20;99.90;;;;;;5029586;28;19909;-61
2024/01/27 10:59:57;;;;;;;;;;;4.20;99.90;;;;;;5028661;28;19978;-61
2024/01/27 11:02:23;;;;;;;;;;;4.30;99.90;;;;;;5028786;28;20330;-62
2024/01/27 11:04:49;;;;;;;;;;;4.30;99.90;;;;;;5032474;28;19915;-62
2024/01/27 11:07:15;;;;;;;;;;;4.30;99.90;;;;;;5028633;28;20005;-62
2024/01/27 11:09:41;;;;;;;;;;;4.30;99.90;;;;;;5028776;28;20345;-61
2024/01/27 11:12:08;;;;;;;;;;;4.30;99.90;;;;;;5027298;28;19918;-61
2024/01/27 11:14:33;;;;;;;;;;;4.30;99.90;;;;;;5025342;28;19917;-61
2024/01/27 11:16:59;;;;;;;;;;;4.30;99.90;;;;;;5024122;28;20253;-62
2024/01/27 11:19:24;;;;;;;;;;;4.40;99.90;;;;;;5026026;28;20476;-61
2024/01/27 11:22:03;;;;;;;;;;;4.40;99.90;;;;;;5025376;28;20358;-61
2024/01/27 11:24:28;;;;;;;;;;;4.50;99.90;;;;;;5025931;28;19913;-61
2024/01/27 11:27:01;;;;;;;;;;;4.50;99.90;;;;;;5025619;28;19917;-62
2024/01/27 11:29:27;;;;;;;;;;;4.50;99.90;;;;;;5025812;28;19985;-61
2024/01/27 11:31:54;;;;;;;;;;;4.60;99.90;;;;;;5024945;28;20545;-61
2024/01/27 11:34:20;;;;;;;;;;;4.70;99.90;;;;;;5018112;28;19937;-61
2024/01/27 11:36:45;;;;;;;;;;;4.70;99.90;;;;;;5020001;28;20366;-61
2024/01/27 11:39:30;;;;;;;;;;;4.80;99.90;;;;;;5015285;28;19923;-61
2024/01/27 11:42:24;;;;;;;;;;;4.80;99.90;;;;;;5021655;28;19956;-61
2024/01/27 11:44:50;;;;;;;;;;;4.90;99.90;;;;;;5027437;28;19945;-62
2024/01/27 11:47:17;;;;;;;;;;;4.90;99.90;;;;;;5024647;28;19956;-61
2024/01/27 11:49:43;;;;;;;;;;;5.00;99.90;;;;;;5024702;28;20040;-61
2024/01/27 11:52:08;;;;;;;;;;;5.00;99.90;;;;;;5024473;28;19917;-61
2024/01/27 11:54:34;;;;;;;;;;;5.00;99.90;;;;;;5040194;28;19924;-61
2024/01/27 11:57:01;;;;;;;;;;;5.00;99.90;;;;;;5016775;28;19959;-61
2024/01/27 11:59:27;;;;;;;;;;;5.10;99.90;;;;;;5024913;28;20129;-61
2024/01/27 12:01:52;;;;;;;;;;;5.10;99.90;;;;;;5023729;28;19924;-61
2024/01/27 12:04:18;;;;;;;;;;;5.10;99.90;;;;;;5024901;28;19954;-61
2024/01/27 12:06:43;;;;;;;;;;;5.10;99.90;;;;;;5024232;28;19916;-61
2024/01/27 12:09:11;;;;;;;;;;;5.10;99.90;;;;;;5024818;28;19940;-61
2024/01/27 12:11:41;;;;;;;;;;;5.10;99.90;;;;;;5024077;28;19957;-61
2024/01/27 12:14:06;;;;;;;;;;;5.20;99.90;;;;;;5007053;28;19917;-62
2024/01/27 12:16:32;;;;;;;;;;;5.20;99.90;;;;;;5024356;28;19920;-62
2024/01/27 12:18:57;;;;;;;;;;;5.20;99.90;;;;;;5024369;28;19945;-61
2024/01/27 12:21:23;;;;;;;;;;;5.20;99.90;;;;;;5024173;28;19992;-61
2024/01/27 12:23:52;;;;;;;;;;;5.20;99.90;;;;;;5023805;28;19944;-61
2024/01/27 12:26:19;;;;;;;;;;;5.30;99.90;;;;;;5005947;28;20419;-62
2024/01/27 12:28:48;;;;;;;;;;;5.30;99.90;;;;;;5004512;28;20298;-61
2024/01/27 12:31:20;;;;;;;;;;;5.30;99.90;;;;;;5014256;28;19921;-62
2024/01/27 12:33:49;;;;;;;;;;;5.40;99.90;;;;;;5023688;28;19969;-62
2024/01/27 12:36:16;;;;;;;;;;;5.40;99.90;;;;;;5018124;28;19920;-61
2024/01/27 12:38:42;;;;;;;;;;;5.40;99.90;;;;;;5023976;28;20474;-61
2024/01/27 12:41:07;;;;;;;;;;;5.40;99.90;;;;;;5023752;28;19913;-61
2024/01/27 12:43:33;;;;;;;;;;;5.50;99.90;;;;;;5024241;28;19921;-61
2024/01/27 12:45:58;;;;;;;;;;;5.50;99.90;;;;;;5020855;28;19913;-61
2024/01/27 12:48:24;;;;;;;;;;;5.50;99.90;;;;;;5024086;28;19966;-61
2024/01/27 12:50:49;;;;;;;;;;;5.50;99.90;;;;;;5023016;28;19913;-61
2024/01/27 12:53:15;;;;;;;;;;;5.60;99.90;;;;;;5024156;28;19964;-62
2024/01/27 12:55:40;;;;;;;;;;;5.60;99.90;;;;;;5023384;28;20286;-62
2024/01/27 12:58:06;;;;;;;;;;;5.70;99.90;;;;;;5024076;28;19913;-62
2024/01/27 13:00:32;;;;;;;;;;;5.70;99.90;;;;;;5023444;28;19913;-61
2024/01/27 13:02:57;;;;;;;;;;;5.70;99.90;;;;;;5022732;28;19939;-61
2024/01/27 13:05:23;;;;;;;;;;;5.80;99.90;;;;;;5022798;28;20082;-62
2024/01/27 13:07:48;;;;;;;;;;;5.80;99.90;;;;;;5022892;28;19909;-62
2024/01/27 13:10:14;;;;;;;;;;;5.80;99.90;;;;;;5022840;28;19962;-61
2024/01/27 13:12:39;;;;;;;;;;;5.90;99.90;;;;;;5023295;28;19920;-61
2024/01/27 13:15:05;;;;;;;;;;;5.90;99.90;;;;;;5022417;28;20823;-62
2024/01/27 13:17:31;;;;;;;;;;;5.90;99.90;;;;;;5022767;28;19917;-61
2024/01/27 13:19:56;;;;;;;;;;;5.90;99.90;;;;;;5018728;28;20478;-62
2024/01/27 13:22:24;;;;;;;;;;;6.00;99.90;;;;;;5013581;28;19956;-61
2024/01/27 13:24:49;;;;;;;;;;;6.00;99.90;;;;;;5021583;28;19913;-62
2024/01/27 13:27:15;;;;;;;;;;;6.10;99.90;;;;;;5017697;28;19943;-62
2024/01/27 13:29:41;;;;;;;;;;;6.10;99.90;;;;;;5021311;28;19921;-61
2024/01/27 13:32:06;;;;;;;;;;;6.10;99.90;;;;;;5021624;28;19931;-61
2024/01/27 13:34:32;;;;;;;;;;;6.10;99.90;;;;;;5021744;28;20401;-62
2024/01/27 13:36:59;;;;;;;;;;;6.00;99.90;;;;;;5020496;28;19948;-62
2024/01/27 13:39:25;;;;;;;;;;;6.10;99.90;;;;;;5022215;28;19920;-61
2024/01/27 13:41:51;;;;;;;;;;;6.10;99.90;;;;;;5021586;28;19913;-62
2024/01/27 13:44:16;;;;;;;;;;;6.10;99.90;;;;;;5022182;28;19970;-62
2024/01/27 13:46:42;;;;;;;;;;;6.10;99.90;;;;;;5021600;28;19913;-62
2024/01/27 13:49:07;;;;;;;;;;;6.10;99.90;;;;;;5021607;28;19917;-62
2024/01/27 13:51:33;;;;;;;;;;;6.10;99.90;;;;;;5020705;28;19931;-61
2024/01/27 13:53:58;;;;;;;;;;;6.10;99.90;;;;;;5021417;28;19917;-62
2024/01/27 13:56:24;;;;;;;;;;;6.10;99.90;;;;;;5022057;28;19914;-61
2024/01/27 13:58:51;;;;;;;;;;;6.10;99.90;;;;;;5021644;28;20631;-61
2024/01/27 14:01:16;;;;;;;;;;;6.10;99.90;;;;;;5021559;28;20035;-61
2024/01/27 14:03:42;;;;;;;;;;;6.10;99.90;;;;;;5003675;28;20027;-62
2024/01/27 14:06:11;;;;;;;;;;;6.10;99.90;;;;;;5021393;28;20046;-62
2024/01/27 14:08:37;;;;;;;;;;;6.10;99.90;;;;;;5021369;28;20362;-62
2024/01/27 14:11:03;;;;;;;;;;;6.10;99.90;;;;;;5021383;28;20070;-62
2024/01/27 14:13:28;;;;;;;;;;;6.10;99.90;;;;;;5021714;28;20444;-62
2024/01/27 14:15:54;;;;;;;;;;;6.10;99.90;;;;;;5021289;28;19913;-62
2024/01/27 14:18:22;;;;;;;;;;;6.10;99.90;;;;;;5021916;28;19909;-62
2024/01/27 14:20:48;;;;;;;;;;;6.10;99.90;;;;;;5020640;28;19925;-62
2024/01/27 14:23:15;;;;;;;;;;;6.10;99.90;;;;;;5021599;28;20519;-61